Time;durP1;ratioP1;P1;durP2;ratioP2;P2;SDS_P1;SDS_P2;PMS_P1;PMS_P2;Temp;Humidity;BMP_temperature;BMP_pressure;BME280_temperature;BME280_humidity;BME280_pressure;Samples;Min_cycle;Max_cycle;Signal;HPM_P1;HPM_P2
2021/05/05 00:00:31;;;;;;;4.40;1.63;;;8.80;99.90;;;;;;5075331;28;20046;-73
2021/05/05 00:02:57;;;;;;;4.68;1.48;;;8.80;99.90;;;;;;5074902;28;20035;-72
2021/05/05 00:05:23;;;;;;;2.45;1.77;;;8.80;99.90;;;;;;5075126;28;20036;-73
2021/05/05 00:07:49;;;;;;;3.85;1.60;;;8.80;99.90;;;;;;5065127;28;20040;-73
2021/05/05 00:10:16;;;;;;;4.45;2.03;;;8.60;99.90;;;;;;5075524;28;20033;-74
2021/05/05 00:12:42;;;;;;;5.28;1.80;;;8.60;99.90;;;;;;5072435;28;20111;-74
2021/05/05 00:15:11;;;;;;;7.03;2.17;;;8.50;99.90;;;;;;5075165;28;20358;-71
2021/05/05 00:17:37;;;;;;;3.08;1.92;;;8.60;99.90;;;;;;5074429;28;20055;-70
2021/05/05 00:20:04;;;;;;;7.85;1.98;;;8.60;99.90;;;;;;5075502;28;20056;-73
2021/05/05 00:22:30;;;;;;;3.15;1.77;;;8.60;99.90;;;;;;5068657;28;20016;-73
2021/05/05 00:24:56;;;;;;;4.82;2.05;;;8.50;99.90;;;;;;5056396;28;20461;-73
2021/05/05 00:27:22;;;;;;;3.65;1.90;;;8.50;99.90;;;;;;5073101;28;20081;-73
2021/05/05 00:29:47;;;;;;;5.70;2.40;;;8.20;99.90;;;;;;5074554;28;20036;-70
2021/05/05 00:32:13;;;;;;;2.97;2.55;;;8.20;99.90;;;;;;5074985;28;20685;-70
2021/05/05 00:34:38;;;;;;;5.72;2.03;;;8.20;99.90;;;;;;5074840;28;20022;-72
2021/05/05 00:37:04;;;;;;;4.00;2.15;;;8.20;99.90;;;;;;5074863;28;20036;-73
2021/05/05 00:39:30;;;;;;;2.85;2.33;;;8.10;99.90;;;;;;5074903;28;20354;-72
2021/05/05 00:41:55;;;;;;;7.78;2.83;;;8.10;99.90;;;;;;5057024;28;20029;-72
2021/05/05 00:44:23;;;;;;;4.70;2.47;;;8.20;99.90;;;;;;5078356;28;20053;-72
2021/05/05 00:46:49;;;;;;;3.17;2.88;;;8.20;99.90;;;;;;5074191;28;20036;-73
2021/05/05 00:49:14;;;;;;;4.95;3.00;;;8.30;99.90;;;;;;5071258;28;20050;-73
2021/05/05 00:51:40;;;;;;;4.90;3.40;;;8.30;99.90;;;;;;5073632;28;20469;-72
2021/05/05 00:54:06;;;;;;;4.45;3.90;;;8.30;99.90;;;;;;5076641;28;20024;-70
2021/05/05 00:56:32;;;;;;;5.28;4.22;;;8.30;99.90;;;;;;5082333;28;20012;-70
2021/05/05 00:58:58;;;;;;;7.03;5.50;;;8.20;99.90;;;;;;5078744;28;20059;-72
2021/05/05 01:01:23;;;;;;;4.75;4.28;;;8.20;99.90;;;;;;5078087;28;20056;-72
2021/05/05 01:03:49;;;;;;;6.97;4.80;;;8.20;99.90;;;;;;5074966;28;20028;-71
2021/05/05 01:06:16;;;;;;;7.55;4.35;;;8.20;99.90;;;;;;5079786;28;20540;-70
2021/05/05 01:08:44;;;;;;;5.63;4.20;;;8.10;99.90;;;;;;5079257;28;20392;-69
2021/05/05 01:11:10;;;;;;;3.92;3.40;;;8.10;99.90;;;;;;5079084;28;20025;-71
2021/05/05 01:13:36;;;;;;;4.88;3.42;;;8.00;99.90;;;;;;5076339;28;20027;-72
2021/05/05 01:16:02;;;;;;;3.83;3.38;;;8.10;99.90;;;;;;5079475;28;20489;-70
2021/05/05 01:18:27;;;;;;;4.97;3.38;;;8.20;99.90;;;;;;5079173;28;20028;-70
2021/05/05 01:21:02;;;;;;;5.55;3.33;;;8.20;99.90;;;;;;5060594;28;20044;-69
2021/05/05 01:23:28;;;;;;;5.13;3.55;;;8.20;99.90;;;;;;5071167;28;20039;-69
2021/05/05 01:25:54;;;;;;;3.70;3.25;;;8.30;99.90;;;;;;5077230;28;20040;-69
2021/05/05 01:28:20;;;;;;;7.68;3.28;;;8.20;99.90;;;;;;5077717;28;20128;-72
2021/05/05 01:30:47;;;;;;;6.07;4.00;;;8.20;99.90;;;;;;5079081;28;20466;-70
2021/05/05 01:33:14;;;;;;;4.68;4.13;;;8.20;99.90;;;;;;5077872;28;20059;-72
2021/05/05 01:35:41;;;;;;;7.00;4.07;;;8.10;99.90;;;;;;5058864;28;20013;-72
2021/05/05 01:38:07;;;;;;;9.13;4.85;;;8.20;99.90;;;;;;5076346;28;20055;-72
2021/05/05 01:40:34;;;;;;;9.30;5.45;;;8.20;99.90;;;;;;5081039;28;20472;-71
2021/05/05 01:43:03;;;;;;;10.98;5.40;;;8.10;99.90;;;;;;5060187;28;20056;-73
2021/05/05 01:45:28;;;;;;;9.23;5.57;;;8.10;99.90;;;;;;5080451;28;20093;-70
2021/05/05 01:47:59;;;;;;;9.15;5.40;;;8.10;99.90;;;;;;5076992;28;20366;-72
2021/05/05 01:50:25;;;;;;;5.97;5.38;;;8.20;99.90;;;;;;5077279;28;20032;-72
2021/05/05 01:52:51;;;;;;;6.88;4.93;;;8.20;99.90;;;;;;5073441;28;20507;-73
2021/05/05 01:55:17;;;;;;;7.18;5.35;;;8.20;99.90;;;;;;5073623;28;20442;-72
2021/05/05 01:57:44;;;;;;;9.25;5.60;;;8.20;99.90;;;;;;5076666;28;20020;-71
2021/05/05 02:00:17;;;;;;;9.77;5.80;;;8.10;99.90;;;;;;5078590;28;20481;-72
2021/05/05 02:02:43;;;;;;;12.27;6.10;;;8.10;99.90;;;;;;5075084;28;20464;-71
2021/05/05 02:05:09;;;;;;;6.85;5.75;;;8.10;99.90;;;;;;5091470;28;20110;-73
2021/05/05 02:07:36;;;;;;;7.60;4.93;;;8.10;99.90;;;;;;5075441;28;20067;-73
2021/05/05 02:10:11;;;;;;;9.27;5.22;;;8.00;99.90;;;;;;5077703;28;20020;-72
2021/05/05 02:12:37;;;;;;;8.32;5.78;;;7.90;99.90;;;;;;5073643;28;20020;-70
2021/05/05 02:15:07;;;;;;;12.07;6.20;;;7.90;99.90;;;;;;5079290;28;20101;-72
2021/05/05 02:17:33;;;;;;;7.60;5.43;;;7.80;99.90;;;;;;5074898;28;20028;-69
2021/05/05 02:19:59;;;;;;;11.73;5.43;;;7.70;99.90;;;;;;5076199;28;20501;-73
2021/05/05 02:22:24;;;;;;;7.95;5.72;;;7.90;99.90;;;;;;5078433;28;20067;-72
2021/05/05 02:24:50;;;;;;;12.75;5.85;;;7.90;99.90;;;;;;5075957;28;20039;-71
2021/05/05 02:27:16;;;;;;;10.65;6.22;;;8.00;99.90;;;;;;5075070;28;20095;-72
2021/05/05 02:29:42;;;;;;;8.85;5.70;;;7.90;99.90;;;;;;5075325;28;20013;-73
2021/05/05 02:32:14;;;;;;;11.15;5.75;;;7.90;99.90;;;;;;5073699;28;20036;-73
2021/05/05 02:34:40;;;;;;;10.18;5.88;;;7.80;99.90;;;;;;5077805;28;20023;-72
2021/05/05 02:37:09;;;;;;;9.38;5.40;;;7.80;99.90;;;;;;5075202;28;20409;-71
2021/05/05 02:39:35;;;;;;;14.40;6.32;;;7.90;99.90;;;;;;5074901;28;20024;-72
2021/05/05 02:42:01;;;;;;;11.02;5.85;;;8.00;99.90;;;;;;5074350;28;20483;-72
2021/05/05 02:44:27;;;;;;;10.40;6.22;;;7.90;99.90;;;;;;5082194;28;20019;-72
2021/05/05 02:46:52;;;;;;;15.38;6.65;;;7.90;99.90;;;;;;5074750;28;20225;-73
2021/05/05 02:49:18;;;;;;;13.95;7.00;;;7.80;99.90;;;;;;5076295;28;20409;-73
2021/05/05 02:51:44;;;;;;;13.80;6.72;;;7.80;99.90;;;;;;5072409;28;20397;-72
2021/05/05 02:54:09;;;;;;;14.40;7.13;;;7.80;99.90;;;;;;5077509;28;20024;-71
2021/05/05 02:56:35;;;;;;;9.35;6.35;;;7.80;99.90;;;;;;5076400;28;20029;-72
2021/05/05 02:59:01;;;;;;;12.23;7.05;;;7.80;99.90;;;;;;5076410;28;20103;-72
2021/05/05 03:01:26;;;;;;;10.93;6.88;;;7.80;99.90;;;;;;5075952;28;20025;-72
2021/05/05 03:03:52;;;;;;;9.95;6.72;;;7.80;99.90;;;;;;5076219;28;20071;-72
2021/05/05 03:06:18;;;;;;;15.35;7.22;;;7.70;99.90;;;;;;5076461;28;20044;-70
2021/05/05 03:08:43;;;;;;;9.85;6.75;;;7.70;99.90;;;;;;5075884;28;20484;-72
2021/05/05 03:11:09;;;;;;;11.45;7.45;;;7.80;99.90;;;;;;5075647;28;20021;-73
2021/05/05 03:13:35;;;;;;;11.50;6.75;;;7.80;99.90;;;;;;5075404;28;20017;-71
2021/05/05 03:16:00;;;;;;;14.35;7.40;;;7.70;99.90;;;;;;5060810;28;20397;-70
2021/05/05 03:18:26;;;;;;;10.15;6.95;;;7.70;99.90;;;;;;5074782;28;20024;-70
2021/05/05 03:20:52;;;;;;;14.38;7.82;;;7.70;99.90;;;;;;5075334;28;20035;-73
2021/05/05 03:23:17;;;;;;;16.67;7.60;;;7.70;99.90;;;;;;5075425;28;20025;-72
2021/05/05 03:25:43;;;;;;;11.70;8.20;;;7.60;99.90;;;;;;5075123;28;20055;-71
2021/05/05 03:28:09;;;;;;;13.25;8.40;;;7.60;99.90;;;;;;5076108;28;20389;-69
2021/05/05 03:30:36;;;;;;;15.73;8.07;;;7.60;99.90;;;;;;5074678;28;20016;-70
2021/05/05 03:33:02;;;;;;;18.13;7.97;;;7.60;99.90;;;;;;5074704;28;20054;-71
2021/05/05 03:35:27;;;;;;;14.63;9.43;;;7.60;99.90;;;;;;5071259;28;20138;-69
2021/05/05 03:37:53;;;;;;;14.55;8.70;;;7.60;99.90;;;;;;5075222;28;20033;-70
2021/05/05 03:40:19;;;;;;;12.27;7.97;;;7.50;99.90;;;;;;5075438;28;20028;-69
2021/05/05 03:42:44;;;;;;;11.00;7.63;;;7.60;99.90;;;;;;5075361;28;20024;-69
2021/05/05 03:45:10;;;;;;;15.77;8.27;;;7.60;99.90;;;;;;5058205;28;20024;-69
2021/05/05 03:47:39;;;;;;;16.92;8.02;;;7.70;99.90;;;;;;5075484;28;20021;-71
2021/05/05 03:50:07;;;;;;;14.52;8.43;;;7.70;99.90;;;;;;5075388;28;20029;-72
2021/05/05 03:52:32;;;;;;;14.10;8.52;;;7.70;99.90;;;;;;5073266;28;20081;-69
2021/05/05 03:54:58;;;;;;;14.52;8.90;;;7.70;99.90;;;;;;5064294;28;20032;-69
2021/05/05 03:57:24;;;;;;;19.95;8.75;;;7.60;99.90;;;;;;5071838;28;20028;-69
2021/05/05 03:59:50;;;;;;;17.50;8.20;;;7.80;99.90;;;;;;5057369;28;20055;-69
2021/05/05 04:02:15;;;;;;;13.20;8.13;;;7.70;99.90;;;;;;5076611;28;20016;-70
2021/05/05 04:04:41;;;;;;;14.00;8.45;;;7.80;99.90;;;;;;5075652;28;20626;-69
2021/05/05 04:07:07;;;;;;;14.45;7.72;;;7.80;99.90;;;;;;5073396;28;20032;-69
2021/05/05 04:09:35;;;;;;;11.02;8.40;;;7.80;99.90;;;;;;5075184;28;20493;-70
2021/05/05 04:12:02;;;;;;;16.65;9.07;;;7.70;99.90;;;;;;5074867;28;20024;-69
2021/05/05 04:14:27;;;;;;;17.35;8.63;;;7.70;99.90;;;;;;5081311;28;20376;-69
2021/05/05 04:16:53;;;;;;;13.80;8.20;;;7.70;99.90;;;;;;5073521;28;20028;-70
2021/05/05 04:19:18;;;;;;;19.05;9.13;;;7.80;99.90;;;;;;5074704;28;20060;-69
2021/05/05 04:21:44;;;;;;;15.65;7.95;;;7.80;99.90;;;;;;5074553;28;20055;-71
2021/05/05 04:24:11;;;;;;;11.88;7.68;;;7.70;99.90;;;;;;5075149;28;20033;-69
2021/05/05 04:26:37;;;;;;;13.75;8.57;;;7.70;99.90;;;;;;5075558;28;20024;-69
2021/05/05 04:29:03;;;;;;;18.58;7.45;;;7.70;99.90;;;;;;5072109;28;20381;-69
2021/05/05 04:31:30;;;;;;;15.45;9.32;;;7.60;99.90;;;;;;5075396;28;20492;-69
2021/05/05 04:33:56;;;;;;;14.00;8.90;;;7.60;99.90;;;;;;5073087;28;20024;-70
2021/05/05 04:36:22;;;;;;;11.50;7.25;;;7.60;99.90;;;;;;5072239;28;20035;-69
2021/05/05 04:38:47;;;;;;;16.63;9.02;;;7.60;99.90;;;;;;5074593;28;20028;-68
2021/05/05 04:41:13;;;;;;;11.13;7.78;;;7.60;99.90;;;;;;5057191;28;20029;-69
2021/05/05 04:43:39;;;;;;;17.77;8.45;;;7.60;99.90;;;;;;5071760;28;20023;-69
2021/05/05 04:46:05;;;;;;;14.35;8.18;;;7.50;99.90;;;;;;5076812;28;20044;-69
2021/05/05 04:48:30;;;;;;;15.27;7.60;;;7.50;99.90;;;;;;5075276;28;20020;-69
2021/05/05 04:50:56;;;;;;;13.77;8.77;;;7.60;99.90;;;;;;5074679;28;20028;-69
2021/05/05 04:53:25;;;;;;;12.90;7.57;;;7.60;99.90;;;;;;5073313;28;20017;-69
2021/05/05 04:55:52;;;;;;;17.05;8.20;;;7.50;99.90;;;;;;5075060;28;20044;-69
2021/05/05 04:58:19;;;;;;;11.77;8.00;;;7.50;99.90;;;;;;5076251;28;20048;-69
2021/05/05 05:00:44;;;;;;;11.00;7.55;;;7.50;99.90;;;;;;5074625;28;20419;-69
2021/05/05 05:03:10;;;;;;;12.88;8.15;;;7.60;99.90;;;;;;5074145;28;20039;-69
2021/05/05 05:05:35;;;;;;;14.80;7.95;;;7.60;99.90;;;;;;5073713;28;20064;-69
2021/05/05 05:08:01;;;;;;;14.57;7.82;;;7.70;99.90;;;;;;5055603;28;20033;-69
2021/05/05 05:10:27;;;;;;;12.63;8.10;;;7.80;99.90;;;;;;5074221;28;20020;-69
2021/05/05 05:12:55;;;;;;;12.80;8.10;;;7.50;99.90;;;;;;5055589;28;20036;-69
2021/05/05 05:15:21;;;;;;;14.63;9.13;;;7.60;99.90;;;;;;5076276;28;20031;-69
2021/05/05 05:17:46;;;;;;;18.80;10.48;;;7.60;99.90;;;;;;5074425;28;20155;-69
2021/05/05 05:20:12;;;;;;;15.63;10.20;;;7.60;99.90;;;;;;5074677;28;20111;-68
2021/05/05 05:22:38;;;;;;;17.45;10.20;;;7.60;99.90;;;;;;5056021;28;20012;-69
2021/05/05 05:25:06;;;;;;;18.33;11.18;;;7.70;99.90;;;;;;5073358;28;20025;-70
2021/05/05 05:27:32;;;;;;;19.02;12.40;;;7.70;99.90;;;;;;5074048;28;20020;-70
2021/05/05 05:29:58;;;;;;;14.75;7.43;;;7.60;99.90;;;;;;5070494;28;20024;-69
2021/05/05 05:32:23;;;;;;;16.42;12.55;;;7.80;99.90;;;;;;5074003;28;20056;-69
2021/05/05 05:34:49;;;;;;;17.92;12.77;;;7.80;99.90;;;;;;5068498;28;20104;-68
2021/05/05 05:37:15;;;;;;;22.13;12.48;;;7.80;99.90;;;;;;5052902;28;20033;-69
2021/05/05 05:39:41;;;;;;;16.25;10.18;;;7.90;99.90;;;;;;5082497;28;20098;-69
2021/05/05 05:42:07;;;;;;;15.82;11.13;;;7.80;99.90;;;;;;5082521;28;20525;-69
2021/05/05 05:44:33;;;;;;;19.40;10.48;;;7.80;99.90;;;;;;5085439;28;20099;-68
2021/05/05 05:46:58;;;;;;;20.73;9.88;;;7.90;99.90;;;;;;5079124;28;20477;-68
2021/05/05 05:49:24;;;;;;;18.08;9.50;;;7.80;99.90;;;;;;5073975;28;20107;-68
2021/05/05 05:51:50;;;;;;;13.30;9.38;;;7.90;99.90;;;;;;5081846;28;20108;-71
2021/05/05 05:54:16;;;;;;;17.30;9.77;;;8.10;99.90;;;;;;5079075;28;20475;-71
2021/05/05 05:56:41;;;;;;;15.68;10.35;;;8.00;99.90;;;;;;5083991;28;20124;-70
2021/05/05 05:59:07;;;;;;;14.32;9.10;;;8.00;99.90;;;;;;5075104;28;20029;-71
2021/05/05 06:01:32;;;;;;;14.15;8.27;;;8.10;99.90;;;;;;5075946;28;20031;-71
2021/05/05 06:03:58;;;;;;;12.98;8.70;;;8.20;99.90;;;;;;5080852;28;20412;-69
2021/05/05 06:06:24;;;;;;;7.72;5.88;;;7.90;99.90;;;;;;5083068;28;20044;-70
2021/05/05 06:08:49;;;;;;;7.65;4.53;;;7.70;99.90;;;;;;5079619;28;20069;-70
2021/05/05 06:11:15;;;;;;;3.95;3.53;;;7.60;99.90;;;;;;5082468;28;20071;-71
2021/05/05 06:13:41;;;;;;;5.65;2.90;;;7.50;99.90;;;;;;5078036;28;20032;-71
2021/05/05 06:16:06;;;;;;;4.00;2.53;;;7.40;99.90;;;;;;5075268;28;20052;-70
2021/05/05 06:18:32;;;;;;;2.35;1.85;;;7.40;99.90;;;;;;5084869;28;20016;-70
2021/05/05 06:20:58;;;;;;;2.03;1.90;;;7.40;99.90;;;;;;5085528;28;20027;-71
2021/05/05 06:23:24;;;;;;;3.15;1.67;;;7.30;99.90;;;;;;5077025;28;20040;-70
2021/05/05 06:25:49;;;;;;;3.38;2.55;;;7.30;99.90;;;;;;5076521;28;20028;-71
2021/05/05 06:28:15;;;;;;;2.63;2.00;;;7.40;99.90;;;;;;5076221;28;20025;-71
2021/05/05 06:30:41;;;;;;;3.72;1.90;;;7.50;99.90;;;;;;5070598;28;20104;-72
2021/05/05 06:33:06;;;;;;;2.17;2.00;;;7.50;99.90;;;;;;5078060;28;20028;-71
2021/05/05 06:35:32;;;;;;;2.90;2.60;;;7.50;99.90;;;;;;5077585;28;20408;-71
2021/05/05 06:37:58;;;;;;;5.15;3.15;;;7.60;99.90;;;;;;5054690;28;20128;-71
2021/05/05 06:40:24;;;;;;;3.65;3.15;;;7.50;99.90;;;;;;5078030;28;20409;-72
2021/05/05 06:42:50;;;;;;;5.00;3.42;;;7.40;99.90;;;;;;5073189;28;20485;-72
2021/05/05 06:45:16;;;;;;;4.05;3.60;;;7.40;99.90;;;;;;5057279;28;20036;-72
2021/05/05 06:47:41;;;;;;;4.22;3.83;;;7.40;99.90;;;;;;5080078;28;20105;-70
2021/05/05 06:50:09;;;;;;;5.20;3.75;;;7.50;99.90;;;;;;5077027;28;20584;-71
2021/05/05 06:52:35;;;;;;;6.20;3.95;;;7.40;99.90;;;;;;5082813;28;20028;-71
2021/05/05 06:55:01;;;;;;;4.60;4.13;;;7.50;99.90;;;;;;5073256;28;20370;-71
2021/05/05 06:57:27;;;;;;;7.20;4.63;;;7.60;99.90;;;;;;5062411;28;20069;-72
2021/05/05 06:59:53;;;;;;;4.57;4.13;;;7.70;99.90;;;;;;5080985;28;20377;-71
2021/05/05 07:02:18;;;;;;;4.90;4.40;;;7.70;99.90;;;;;;5074362;28;20040;-70
2021/05/05 07:04:44;;;;;;;6.68;4.68;;;7.70;99.90;;;;;;5073282;28;20024;-70
2021/05/05 07:07:10;;;;;;;8.15;4.50;;;7.80;99.90;;;;;;5075102;28;20523;-70
2021/05/05 07:09:36;;;;;;;5.32;4.32;;;7.90;99.90;;;;;;5072445;28;20693;-70
2021/05/05 07:12:02;;;;;;;6.03;5.22;;;7.90;99.90;;;;;;5062585;28;20029;-70
2021/05/05 07:14:28;;;;;;;8.45;5.85;;;7.90;99.90;;;;;;5061985;28;20028;-70
2021/05/05 07:16:53;;;;;;;10.20;5.80;;;8.00;99.90;;;;;;5072837;28;20025;-70
2021/05/05 07:19:19;;;;;;;7.63;6.30;;;8.10;99.90;;;;;;5078949;28;20040;-70
2021/05/05 07:21:45;;;;;;;11.93;7.13;;;8.10;99.90;;;;;;5079842;28;20016;-71
2021/05/05 07:24:11;;;;;;;15.20;7.80;;;8.10;99.90;;;;;;5078023;28;20024;-72
2021/05/05 07:26:36;;;;;;;14.55;7.72;;;8.30;99.90;;;;;;5077229;28;20108;-71
2021/05/05 07:29:03;;;;;;;12.75;8.80;;;8.40;99.90;;;;;;5055248;28;20369;-71
2021/05/05 07:31:29;;;;;;;10.50;6.80;;;8.60;99.90;;;;;;5074332;28;20078;-71
2021/05/05 07:33:56;;;;;;;11.15;7.43;;;8.70;99.90;;;;;;5075152;28;20020;-71
2021/05/05 07:36:26;;;;;;;13.35;8.57;;;8.80;99.90;;;;;;5077901;28;20081;-71
2021/05/05 07:47:25;;;;;;;11.25;8.88;;;9.20;99.90;;;;;;5063776;28;20089;-71
2021/05/05 07:49:49;;;;;;;14.27;8.77;;;9.30;99.90;;;;;;5074703;28;20500;-72
2021/05/05 07:52:16;;;;;;;16.60;8.15;;;9.40;99.90;;;;;;5078389;28;20476;-72
2021/05/05 07:54:42;;;;;;;11.15;8.52;;;9.20;99.90;;;;;;5074629;28;20103;-70
2021/05/05 07:57:08;;;;;;;13.93;8.10;;;9.10;99.90;;;;;;5052841;28;20116;-71
2021/05/05 07:59:33;;;;;;;14.32;8.60;;;9.20;99.90;;;;;;5061552;28;20035;-71
2021/05/05 08:01:59;;;;;;;10.50;6.07;;;9.30;99.90;;;;;;5069386;28;20154;-71
2021/05/05 08:04:25;;;;;;;9.38;5.45;;;9.40;99.90;;;;;;5061687;28;20073;-71
2021/05/05 08:06:51;;;;;;;13.93;5.30;;;9.30;99.90;;;;;;5061694;28;20039;-71
2021/05/05 08:09:17;;;;;;;10.98;4.80;;;9.40;99.90;;;;;;5073356;28;20029;-71
2021/05/05 08:11:43;;;;;;;10.45;4.63;;;9.40;99.90;;;;;;5069099;28;20125;-70
2021/05/05 08:14:09;;;;;;;9.82;5.13;;;9.50;99.90;;;;;;5069339;28;20029;-70
2021/05/05 08:16:35;;;;;;;11.63;4.88;;;9.50;99.90;;;;;;5069135;28;20123;-70
2021/05/05 08:19:00;;;;;;;9.60;3.97;;;9.60;99.90;;;;;;5063655;28;20058;-70
2021/05/05 08:21:27;;;;;;;13.90;4.53;;;9.70;99.90;;;;;;5077190;28;20024;-70
2021/05/05 08:23:53;;;;;;;11.15;5.43;;;9.70;99.90;;;;;;5075566;28;20024;-70
2021/05/05 08:26:19;;;;;;;9.88;4.18;;;9.70;99.90;;;;;;5079461;28;20420;-70
2021/05/05 08:28:45;;;;;;;13.07;3.97;;;9.70;99.90;;;;;;5082242;28;20070;-70
2021/05/05 08:31:11;;;;;;;9.27;4.30;;;9.70;99.90;;;;;;5077194;28;20472;-71
2021/05/05 08:33:37;;;;;;;9.85;4.90;;;9.80;99.90;;;;;;5073582;28;20035;-73
2021/05/05 08:36:03;;;;;;;8.82;4.53;;;9.80;99.90;;;;;;5077516;28;20441;-72
2021/05/05 08:38:29;;;;;;;14.00;4.35;;;9.90;99.90;;;;;;5082401;28;20892;-70
2021/05/05 08:40:55;;;;;;;15.10;4.43;;;9.80;99.90;;;;;;5082327;28;20377;-74
2021/05/05 08:43:20;;;;;;;12.25;3.45;;;10.00;99.90;;;;;;5073538;28;20082;-72
2021/05/05 08:45:48;;;;;;;12.57;4.35;;;9.90;99.90;;;;;;5063750;28;20359;-71
2021/05/05 08:48:17;;;;;;;10.95;3.65;;;9.90;99.90;;;;;;5071340;28;20381;-72
2021/05/05 08:50:43;;;;;;;11.63;4.13;;;9.90;99.90;;;;;;5079243;28;20048;-73
2021/05/05 08:53:09;;;;;;;12.15;3.67;;;9.90;99.90;;;;;;5072713;28;20024;-70
2021/05/05 08:55:35;;;;;;;14.13;4.68;;;9.90;99.90;;;;;;5060794;28;20009;-70
2021/05/05 08:58:04;;;;;;;13.02;5.78;;;10.00;99.90;;;;;;5044554;28;20032;-70
2021/05/05 09:00:36;;;;;;;9.93;5.32;;;10.00;99.90;;;;;;5031021;28;20039;-70
2021/05/05 09:03:05;;;;;;;15.48;5.45;;;10.10;99.90;;;;;;5067724;28;20021;-70
2021/05/05 09:05:51;;;;;;;8.25;4.70;;;10.10;99.90;;;;;;5068027;28;20576;-70
2021/05/05 09:08:17;;;;;;;11.70;4.25;;;10.10;99.90;;;;;;5047545;28;20140;-69
2021/05/05 09:10:58;;;;;;;13.05;4.53;;;10.20;99.90;;;;;;5071936;28;20514;-70
2021/05/05 09:13:57;;;;;;;14.75;4.18;;;10.00;99.90;;;;;;5069707;28;20040;-70
2021/05/05 09:16:26;;;;;;;7.03;3.78;;;10.00;99.90;;;;;;5081916;28;20024;-71
2021/05/05 09:19:01;;;;;;;11.25;4.68;;;10.10;99.90;;;;;;5068059;28;20039;-71
2021/05/05 09:21:40;;;;;;;13.88;4.40;;;10.20;99.90;;;;;;5075410;28;20024;-70
2021/05/05 09:24:22;;;;;;;16.60;8.88;;;10.20;99.90;;;;;;5075694;28;20095;-70
2021/05/05 09:26:50;;;;;;;10.55;4.05;;;10.10;99.90;;;;;;5075257;28;20029;-70
2021/05/05 09:29:17;;;;;;;14.82;4.25;;;10.20;99.90;;;;;;5068420;28;20077;-72
2021/05/05 09:31:44;;;;;;;14.10;4.38;;;10.20;99.90;;;;;;5056807;28;20107;-72
2021/05/05 09:34:11;;;;;;;15.45;4.07;;;10.20;99.90;;;;;;5074699;28;20446;-73
2021/05/05 09:36:39;;;;;;;13.02;3.58;;;10.40;99.90;;;;;;5066390;28;20108;-73
2021/05/05 09:39:08;;;;;;;11.60;3.67;;;10.60;99.90;;;;;;5065333;28;20085;-71
2021/05/05 09:41:35;;;;;;;12.27;3.50;;;10.60;99.90;;;;;;5066496;28;20069;-72
2021/05/05 09:44:03;;;;;;;10.50;3.03;;;10.80;99.90;;;;;;5068942;28;20021;-72
2021/05/05 09:46:30;;;;;;;10.88;3.50;;;10.90;99.90;;;;;;5072469;28;20028;-72
2021/05/05 09:49:33;;;;;;;14.35;3.38;;;11.20;99.90;;;;;;5068959;28;20020;-71
2021/05/05 09:52:01;;;;;;;10.93;3.17;;;11.20;99.90;;;;;;5063859;28;20032;-73
2021/05/05 09:54:31;;;;;;;13.13;3.45;;;11.00;99.90;;;;;;5067469;28;20057;-71
2021/05/05 09:57:17;;;;;;;11.25;3.92;;;11.00;99.90;;;;;;5070048;28;20508;-72
2021/05/05 09:59:55;;;;;;;10.48;3.15;;;11.10;99.90;;;;;;5068160;28;20038;-72
2021/05/05 10:02:22;;;;;;;6.30;2.20;;;11.50;99.90;;;;;;5068264;28;20428;-71
2021/05/05 10:05:15;;;;;;;5.85;2.10;;;11.80;99.90;;;;;;5056562;28;20099;-71
2021/05/05 10:07:54;;;;;;;9.23;2.72;;;11.80;99.90;;;;;;5066411;28;20028;-71
2021/05/05 10:10:21;;;;;;;13.55;3.22;;;11.60;99.90;;;;;;5064846;28;20036;-72
2021/05/05 10:12:48;;;;;;;8.98;2.58;;;11.50;99.90;;;;;;5066151;28;20017;-71
2021/05/05 10:15:16;;;;;;;11.63;2.75;;;11.60;99.90;;;;;;5068738;28;20505;-71
2021/05/05 10:17:45;;;;;;;10.13;3.38;;;11.90;99.90;;;;;;5066846;28;20642;-71
2021/05/05 10:20:15;;;;;;;5.72;1.95;;;11.80;99.90;;;;;;5075940;28;20481;-72
2021/05/05 10:22:41;;;;;;;8.63;1.83;;;11.60;99.90;;;;;;5072570;28;20054;-72
2021/05/05 10:25:08;;;;;;;7.43;2.15;;;11.30;99.90;;;;;;5070818;28;20151;-72
2021/05/05 10:27:34;;;;;;;4.20;2.00;;;11.60;99.90;;;;;;5069496;28;20039;-71
2021/05/05 10:30:00;;;;;;;10.75;2.00;;;11.70;99.90;;;;;;5069248;28;20025;-71
2021/05/05 10:32:31;;;;;;;11.30;2.25;;;11.70;99.90;;;;;;5068947;28;20115;-72
2021/05/05 10:34:57;;;;;;;8.77;2.53;;;11.60;99.90;;;;;;5073622;28;20032;-71
2021/05/05 10:37:50;;;;;;;5.70;1.65;;;11.50;99.90;;;;;;5062127;28;20033;-72
2021/05/05 10:40:16;;;;;;;;;;;11.80;99.90;;;;;;5067716;28;20036;-72
2021/05/05 10:43:09;;;;;;;7.53;3.00;;;12.10;99.90;;;;;;5074759;28;19970;-71
2021/05/05 10:45:42;;;;;;;5.40;1.85;;;12.40;99.90;;;;;;5064862;28;20389;-72
2021/05/05 10:48:13;;;;;;;6.20;1.67;;;12.60;99.90;;;;;;5070120;28;20036;-72
2021/05/05 10:50:48;;;;;;;4.95;1.40;;;12.90;99.90;;;;;;5073882;28;20220;-71
2021/05/05 10:53:14;;;;;;;6.93;1.63;;;13.10;99.90;;;;;;5066319;28;20240;-72
2021/05/05 10:55:46;;;;;;;7.25;1.63;;;13.00;99.90;;;;;;5060819;28;20547;-72
2021/05/05 10:58:17;;;;;;;5.68;2.00;;;12.60;99.90;;;;;;5071995;28;20507;-71
2021/05/05 11:00:43;;;;;;;11.25;2.03;;;12.40;99.90;;;;;;5070362;28;20040;-71
2021/05/05 11:03:09;;;;;;;4.75;1.75;;;12.20;99.90;;;;;;5054759;28;20028;-72
2021/05/05 11:05:36;;;;;;;7.78;1.65;;;12.00;99.90;;;;;;5059844;28;20040;-71
2021/05/05 11:08:06;;;;;;;8.50;2.00;;;12.10;99.90;;;;;;5069693;28;20028;-72
2021/05/05 11:10:32;;;;;;;7.28;1.60;;;12.20;99.90;;;;;;5063334;28;20038;-72
2021/05/05 11:13:02;;;;;;;8.90;1.70;;;12.10;99.90;;;;;;5070723;28;20033;-71
2021/05/05 11:15:40;;;;;;;7.50;1.73;;;12.10;99.90;;;;;;5065174;28;20029;-71
2021/05/05 11:18:24;;;;;;;7.13;2.28;;;11.90;99.90;;;;;;5062376;28;20036;-71
2021/05/05 11:20:50;;;;;;;8.57;1.92;;;11.60;99.90;;;;;;5057618;28;20031;-71
2021/05/05 11:23:34;;;;;;;7.70;2.25;;;11.40;99.90;;;;;;5056523;28;20029;-71
2021/05/05 11:26:23;;;;;;;7.05;2.40;;;11.30;99.90;;;;;;5062247;28;20033;-71
2021/05/05 11:29:09;;;;;;;11.02;2.80;;;11.10;99.90;;;;;;5061391;28;20374;-71
2021/05/05 11:32:00;;;;;;;8.52;2.60;;;11.00;99.90;;;;;;5057216;28;20633;-71
2021/05/05 11:34:26;;;;;;;8.07;3.15;;;11.20;99.90;;;;;;5062917;28;20032;-71
2021/05/05 11:36:58;;;;;;;6.70;2.47;;;11.40;99.90;;;;;;5063438;28;20033;-71
2021/05/05 11:39:33;;;;;;;6.15;2.60;;;11.60;99.90;;;;;;5059087;28;20112;-71
2021/05/05 11:42:14;;;;;;;8.05;2.40;;;11.90;99.90;;;;;;5060371;28;20025;-71
2021/05/05 11:44:49;;;;;;;11.73;3.10;;;12.20;99.90;;;;;;5054348;28;20091;-71
2021/05/05 11:47:24;;;;;;;8.20;2.60;;;12.60;99.90;;;;;;5066585;28;20085;-71
2021/05/05 11:49:52;;;;;;;9.10;2.80;;;12.60;99.90;;;;;;5064269;28;20033;-71
2021/05/05 11:52:22;;;;;;;6.30;2.58;;;12.60;99.90;;;;;;5060182;28;20024;-71
2021/05/05 11:54:50;;;;;;;5.63;2.20;;;12.20;99.90;;;;;;5058342;28;20033;-71
2021/05/05 11:57:17;;;;;;;5.15;2.20;;;12.00;99.90;;;;;;5058943;28;20100;-71
2021/05/05 11:59:42;;;;;;;6.65;2.58;;;11.80;99.90;;;;;;5064184;28;20034;-71
2021/05/05 12:02:08;;;;;;;6.68;2.10;;;11.70;99.90;;;;;;5050684;28;20021;-71
2021/05/05 12:04:42;;;;;;;8.75;2.33;;;12.00;99.90;;;;;;5047473;28;20021;-71
2021/05/05 12:07:10;;;;;;;9.80;2.60;;;12.30;99.90;;;;;;5044073;28;20033;-71
2021/05/05 12:09:38;;;;;;;6.13;2.88;;;12.20;99.90;;;;;;5061050;28;20025;-71
2021/05/05 12:12:14;;;;;;;7.53;2.40;;;12.10;99.90;;;;;;5061503;28;20031;-71
2021/05/05 12:14:42;;;;;;;5.20;2.10;;;12.10;99.90;;;;;;5073036;28;20028;-71
2021/05/05 12:17:26;;;;;;;7.57;2.70;;;12.00;99.90;;;;;;5070462;28;20112;-71
2021/05/05 12:19:58;;;;;;;6.95;2.30;;;12.10;99.90;;;;;;5046743;28;20040;-71
2021/05/05 12:22:25;;;;;;;6.15;2.55;;;12.10;99.90;;;;;;5064771;28;20016;-70
2021/05/05 12:25:15;;;;;;;5.60;2.22;;;12.40;99.90;;;;;;5067753;28;20033;-71
2021/05/05 12:27:56;;;;;;;4.50;2.50;;;12.80;99.90;;;;;;5067220;28;20085;-71
2021/05/05 12:30:22;;;;;;;4.13;1.90;;;12.40;99.90;;;;;;5076479;28;20016;-71
2021/05/05 12:32:49;;;;;;;5.07;1.75;;;12.10;99.90;;;;;;5060861;28;20134;-71
2021/05/05 12:35:25;;;;;;;2.05;1.35;;;11.80;99.90;;;;;;5057063;28;20052;-71
2021/05/05 12:37:52;;;;;;;5.35;1.65;;;11.60;99.90;;;;;;5057093;28;20033;-71
2021/05/05 12:40:25;;;;;;;3.97;1.30;;;11.50;99.90;;;;;;5064826;28;20500;-71
2021/05/05 12:42:51;;;;;;;;;;;11.60;99.90;;;;;;5055063;28;20040;-71
2021/05/05 12:45:17;;;;;;;4.47;1.63;;;11.80;99.90;;;;;;5062947;28;19916;-71
2021/05/05 12:47:44;;;;;;;3.78;1.63;;;12.20;99.90;;;;;;5062415;28;20032;-71
2021/05/05 12:50:13;;;;;;;8.23;2.20;;;12.30;99.90;;;;;;5066852;28;20024;-71
2021/05/05 12:52:40;;;;;;;5.07;1.38;;;12.40;99.90;;;;;;5061892;28;20025;-71
2021/05/05 12:55:27;;;;;;;12.32;2.05;;;12.70;99.90;;;;;;5064377;28;20028;-71
2021/05/05 12:58:11;;;;;;;9.00;2.28;;;12.90;99.90;;;;;;5065728;28;20032;-71
2021/05/05 13:00:40;;;;;;;4.82;2.20;;;13.00;99.90;;;;;;5064920;28;20491;-72